createdAt,value
2019-01-08T21:55:05.232Z,95.07
2019-01-08T21:55:45.798Z,94.7
2019-01-08T21:56:26.355Z,94.89
2019-01-08T21:57:06.951Z,94.89
2019-01-08T21:57:47.528Z,94.79
2019-01-08T21:58:28.071Z,95.07
2019-01-08T21:59:08.671Z,94.89
2019-01-08T21:59:49.227Z,94.89
2019-01-08T22:00:29.806Z,94.79
2019-01-08T22:01:10.354Z,94.89
2019-01-08T22:01:50.901Z,94.32
2019-01-08T22:02:31.492Z,94.7
2019-01-08T22:03:12.123Z,94.6
2019-01-08T22:03:52.794Z,94.7
2019-01-08T22:04:33.396Z,94.13
2019-01-08T22:05:13.957Z,94.79
2019-01-08T22:05:54.537Z,94.32
2019-01-08T22:06:35.100Z,94.89
2019-01-08T22:07:15.705Z,94.7
2019-01-08T22:07:56.285Z,94.13
2019-01-08T22:08:36.849Z,94.89
2019-01-08T22:09:17.426Z,94.98
2019-01-08T22:09:58.001Z,95.07
2019-01-08T22:10:38.717Z,94.98
2019-01-08T22:11:19.302Z,94.7
2019-01-08T22:11:59.874Z,94.79
2019-01-08T22:12:40.423Z,94.13
2019-01-08T22:13:20.983Z,94.42
2019-01-08T22:14:01.565Z,94.42
2019-01-08T22:14:42.128Z,94.23
2019-01-08T22:15:22.696Z,94.42
2019-01-08T22:16:03.269Z,94.13
2019-01-08T22:16:43.826Z,94.51
2019-01-08T22:17:24.398Z,94.7
2019-01-08T22:18:04.957Z,94.89
2019-01-08T22:18:45.552Z,94.89
2019-01-08T22:19:26.098Z,94.7
2019-01-08T22:20:06.651Z,94.42
2019-01-08T22:20:47.242Z,94.51
2019-01-08T22:21:27.815Z,94.89
2019-01-08T22:22:08.384Z,94.13
2019-01-08T22:22:52.660Z,95.26
2019-01-08T22:23:29.532Z,94.13
2019-01-08T22:24:10.071Z,94.23
2019-01-08T22:24:50.619Z,94.32
2019-01-08T22:25:31.176Z,94.6
2019-01-08T22:26:11.805Z,94.51
2019-01-08T22:26:52.378Z,94.23
2019-01-08T22:27:32.988Z,94.13
2019-01-08T22:28:13.533Z,94.6
2019-01-08T22:28:54.171Z,94.32
2019-01-08T22:29:34.728Z,94.6
2019-01-08T22:30:15.309Z,94.79
2019-01-08T22:30:55.929Z,94.7
2019-01-08T22:31:36.524Z,94.51
2019-01-08T22:32:17.108Z,94.89
2019-01-08T22:32:57.664Z,94.6
2019-01-08T22:33:38.267Z,94.79
2019-01-08T22:34:19.095Z,94.89
2019-01-08T22:35:02.171Z,95.26
2019-01-08T22:35:40.228Z,95.07
2019-01-08T22:36:20.787Z,94.51
2019-01-08T22:37:01.344Z,94.42
2019-01-08T22:37:41.898Z,94.13
2019-01-08T22:38:22.448Z,93.65
2019-01-08T22:39:03.007Z,93.84
2019-01-08T22:39:43.569Z,93.46
2019-01-08T22:40:24.136Z,93.94
2019-01-08T22:41:04.693Z,94.6
2019-01-08T22:41:45.253Z,94.32
2019-01-08T22:42:25.814Z,94.42
2019-01-08T22:43:06.369Z,94.51
2019-01-08T22:43:46.904Z,94.51
2019-01-08T22:44:27.458Z,94.6
2019-01-08T22:45:08.091Z,94.42
2019-01-08T22:45:48.607Z,94.42
2019-01-08T22:46:29.155Z,94.7
2019-01-08T22:47:09.927Z,94.7
2019-01-08T22:47:50.487Z,95.55
2019-01-08T22:48:31.038Z,94.79
2019-01-08T22:49:11.594Z,94.7
2019-01-08T22:49:52.150Z,95.07
2019-01-08T22:50:32.692Z,95.26
2019-01-08T22:51:13.261Z,94.7
2019-01-08T22:51:53.856Z,94.6
2019-01-08T22:52:34.918Z,94.79
2019-01-08T22:53:14.983Z,94.98
2019-01-08T22:53:55.541Z,94.89
2019-01-08T22:54:36.125Z,94.89
2019-01-08T22:55:16.660Z,94.89
2019-01-08T22:55:57.248Z,94.6
2019-01-08T22:56:37.836Z,94.6
2019-01-08T22:57:18.434Z,94.89
2019-01-08T22:57:58.997Z,94.42
2019-01-08T22:58:39.555Z,94.6
2019-01-08T22:59:20.109Z,94.32
2019-01-08T23:00:00.682Z,94.04
2019-01-08T23:00:41.256Z,94.7
2019-01-08T23:01:21.831Z,94.23
2019-01-08T23:02:02.380Z,94.13
2019-01-08T23:02:42.939Z,94.04
2019-01-08T23:03:23.500Z,93.46
2019-01-08T23:04:04.055Z,93.56
2019-01-08T23:04:44.613Z,93.84
2019-01-08T23:05:25.172Z,94.13
2019-01-08T23:06:05.719Z,94.6
2019-01-08T23:06:46.295Z,94.79
2019-01-08T23:07:26.838Z,95.26
2019-01-08T23:08:07.385Z,94.32
2019-01-08T23:08:47.951Z,94.6
2019-01-08T23:09:28.546Z,94.32
2019-01-08T23:10:09.117Z,94.23
2019-01-08T23:10:49.675Z,94.32
2019-01-08T23:11:30.232Z,94.42
2019-01-08T23:12:10.843Z,94.51
2019-01-08T23:12:51.399Z,94.23
2019-01-08T23:13:31.951Z,94.7
2019-01-08T23:14:12.540Z,94.7
2019-01-08T23:14:53.125Z,94.23
2019-01-08T23:15:33.676Z,94.32
2019-01-08T23:16:14.242Z,94.7
2019-01-08T23:16:54.809Z,94.32
2019-01-08T23:17:35.352Z,94.13
2019-01-08T23:18:15.909Z,94.51
2019-01-08T23:18:56.480Z,94.7
2019-01-08T23:19:37.041Z,94.23
2019-01-08T23:20:17.601Z,93.94
2019-01-08T23:20:58.139Z,94.42
2019-01-08T23:21:39.982Z,94.42
2019-01-08T23:22:19.265Z,94.89
2019-01-08T23:22:59.813Z,94.42
2019-01-08T23:23:40.372Z,94.13
2019-01-08T23:24:20.939Z,94.23
2019-01-08T23:25:01.497Z,94.51
2019-01-08T23:25:42.066Z,95.36
2019-01-08T23:26:22.642Z,95.07
2019-01-08T23:27:03.201Z,94.79
2019-01-08T23:27:43.786Z,94.7
2019-01-08T23:28:24.334Z,94.6
2019-01-08T23:29:04.898Z,94.23
2019-01-08T23:29:45.474Z,94.89
2019-01-08T23:30:26.043Z,94.89
2019-01-08T23:31:06.615Z,94.42
2019-01-08T23:31:47.162Z,94.42
2019-01-08T23:32:27.713Z,94.32
2019-01-08T23:33:08.266Z,94.6
2019-01-08T23:33:48.830Z,94.42
2019-01-08T23:34:29.629Z,94.6
2019-01-08T23:35:10.193Z,95.07
2019-01-08T23:35:50.749Z,94.23
2019-01-08T23:36:31.288Z,95.26
2019-01-08T23:37:11.978Z,95.17
2019-01-08T23:37:52.567Z,94.13
2019-01-08T23:38:33.147Z,94.65
2019-01-08T23:39:13.743Z,94.23
2019-01-08T23:39:54.316Z,94.89
2019-01-08T23:40:34.915Z,94.23
2019-01-08T23:41:15.462Z,94.84
2019-01-08T23:41:56.015Z,95.26
2019-01-08T23:42:36.563Z,94.84
2019-01-08T23:43:17.111Z,94.84
2019-01-08T23:43:57.672Z,94.89
2019-01-08T23:44:38.223Z,94.84
2019-01-08T23:45:18.787Z,95.12
2019-01-08T23:45:59.338Z,94.65
2019-01-08T23:46:39.955Z,95.31
2019-01-08T23:47:20.578Z,95.5
2019-01-08T23:48:01.157Z,95.31
2019-01-08T23:48:41.710Z,95.31
2019-01-08T23:49:22.263Z,95.6
2019-01-08T23:50:02.814Z,95.5
2019-01-08T23:50:43.381Z,95.5
2019-01-08T23:51:23.933Z,95.69
2019-01-08T23:52:04.498Z,95.12
2019-01-08T23:52:45.056Z,95.12
2019-01-08T23:53:25.613Z,95.5
2019-01-08T23:54:06.200Z,95.22
2019-01-08T23:54:46.758Z,95.36
2019-01-08T23:55:27.317Z,95.36
2019-01-08T23:56:07.881Z,95.65
2019-01-08T23:56:48.439Z,95.31
2019-01-08T23:57:29.000Z,95.12
2019-01-08T23:58:09.557Z,95.5
2019-01-08T23:58:50.121Z,95.03
2019-01-08T23:59:30.682Z,95.31
